Time;durP1;ratioP1;P1;durP2;ratioP2;P2;SDS_P1;SDS_P2;PMS_P1;PMS_P2;Temp;Humidity;BMP_temperature;BMP_pressure;BME280_temperature;BME280_humidity;BME280_pressure;Samples;Min_cycle;Max_cycle;Signal;HPM_P1;HPM_P2
2023/05/08 00:00:26;;;;;;;0.65;0.65;;;15.30;99.90;;;;;;5075453;28;20099;-74
2023/05/08 00:02:52;;;;;;;0.10;0.10;;;15.30;99.90;;;;;;5075811;28;20036;-76
2023/05/08 00:05:18;;;;;;;1.05;1.05;;;15.40;99.90;;;;;;5075000;28;20112;-76
2023/05/08 00:07:44;;;;;;;0.57;0.57;;;15.20;99.90;;;;;;5067194;28;20029;-75
2023/05/08 00:10:10;;;;;;;3.38;2.38;;;15.20;99.90;;;;;;5073963;28;20380;-76
2023/05/08 00:12:36;;;;;;;0.93;0.88;;;15.10;99.90;;;;;;5057436;28;20032;-75
2023/05/08 00:15:03;;;;;;;2.10;0.98;;;15.00;99.90;;;;;;5075486;28;20085;-75
2023/05/08 00:17:29;;;;;;;0.00;0.00;;;15.10;99.90;;;;;;5057639;28;20028;-75
2023/05/08 00:19:55;;;;;;;1.45;0.75;;;15.20;99.90;;;;;;5075159;28;20115;-76
2023/05/08 00:22:21;;;;;;;0.15;0.15;;;15.20;99.90;;;;;;5075387;28;20465;-75
2023/05/08 00:24:47;;;;;;;0.00;0.00;;;15.10;99.90;;;;;;5075352;28;20020;-76
2023/05/08 00:27:12;;;;;;;0.47;0.47;;;15.10;99.90;;;;;;5075027;28;20016;-77
2023/05/08 00:29:41;;;;;;;7.78;2.42;;;15.20;99.90;;;;;;5057296;28;20515;-75
2023/05/08 00:32:07;;;;;;;1.75;1.65;;;15.20;99.90;;;;;;5075134;28;20005;-75
2023/05/08 00:34:34;;;;;;;1.08;1.05;;;15.00;99.90;;;;;;5075012;28;20032;-71
2023/05/08 00:37:00;;;;;;;1.52;1.42;;;14.80;99.90;;;;;;5074855;28;20079;-71
2023/05/08 00:39:26;;;;;;;0.65;0.65;;;14.80;99.90;;;;;;5074949;28;20115;-71
2023/05/08 00:41:52;;;;;;;8.77;2.42;;;14.90;99.90;;;;;;5074615;28;20127;-71
2023/05/08 00:44:17;;;;;;;6.32;1.50;;;14.90;99.90;;;;;;5074759;28;20024;-71
2023/05/08 00:46:45;;;;;;;0.10;0.10;;;14.90;99.90;;;;;;5075280;28;20024;-71
2023/05/08 00:49:13;;;;;;;3.42;2.88;;;15.00;99.90;;;;;;5056280;28;20023;-73
2023/05/08 00:51:44;;;;;;;3.63;1.50;;;14.90;99.90;;;;;;5074764;28;20040;-71
2023/05/08 00:54:10;;;;;;;2.58;2.38;;;14.60;99.90;;;;;;5056426;28;20090;-70
2023/05/08 00:56:37;;;;;;;0.10;0.10;;;14.50;99.90;;;;;;5074690;28;20042;-71
2023/05/08 00:59:12;;;;;;;3.00;1.48;;;14.40;99.90;;;;;;5074511;28;20411;-71
2023/05/08 01:01:39;;;;;;;1.65;1.55;;;14.40;99.90;;;;;;5074414;28;20048;-70
2023/05/08 01:04:06;;;;;;;5.72;2.28;;;14.40;99.90;;;;;;5074122;28;20052;-74
2023/05/08 01:06:33;;;;;;;2.45;1.83;;;14.50;99.90;;;;;;5040123;28;20032;-72
2023/05/08 01:08:59;;;;;;;1.30;1.27;;;14.30;99.90;;;;;;5074289;28;20025;-73
2023/05/08 01:11:30;;;;;;;0.85;0.80;;;14.30;99.90;;;;;;5056258;28;20012;-71
2023/05/08 01:14:12;;;;;;;0.97;0.97;;;14.20;99.90;;;;;;5074100;28;20135;-71
2023/05/08 01:16:43;;;;;;;8.38;3.22;;;14.20;99.90;;;;;;5074113;28;20476;-71
2023/05/08 01:19:37;;;;;;;0.52;0.52;;;14.10;99.90;;;;;;5055775;28;20024;-74
2023/05/08 01:22:16;;;;;;;2.13;0.95;;;14.00;99.90;;;;;;5073647;28;20089;-72
2023/05/08 01:24:57;;;;;;;6.47;3.45;;;14.00;99.90;;;;;;5056112;28;20432;-71
2023/05/08 01:27:50;;;;;;;0.38;0.38;;;13.90;99.90;;;;;;5073958;28;20040;-71
2023/05/08 01:30:19;;;;;;;20.92;7.60;;;13.90;99.90;;;;;;5039246;28;20040;-71
2023/05/08 01:33:27;;;;;;;1.92;1.52;;;13.80;99.90;;;;;;5055791;28;20027;-71
2023/05/08 01:36:00;;;;;;;3.83;3.53;;;13.80;99.90;;;;;;5052200;28;20071;-70
2023/05/08 01:38:49;;;;;;;16.30;3.55;;;13.70;99.90;;;;;;5073468;28;20125;-72
2023/05/08 01:41:27;;;;;;;0.10;0.10;;;13.70;99.90;;;;;;5055667;28;20029;-72
2023/05/08 01:44:01;;;;;;;0.10;0.10;;;13.80;99.90;;;;;;5055588;28;20024;-71
2023/05/08 01:46:29;;;;;;;0.10;0.10;;;13.80;99.90;;;;;;5055673;28;20350;-71
2023/05/08 01:49:01;;;;;;;0.55;0.55;;;13.90;99.90;;;;;;5073288;28;20376;-71
2023/05/08 01:51:36;;;;;;;0.10;0.10;;;14.10;99.90;;;;;;5089163;28;20032;-71
2023/05/08 01:54:06;;;;;;;0.10;0.10;;;14.20;99.90;;;;;;5055374;28;20078;-73
2023/05/08 01:56:34;;;;;;;0.10;0.10;;;14.40;99.90;;;;;;5055689;28;20029;-71
2023/05/08 01:59:01;;;;;;;0.10;0.10;;;14.40;99.90;;;;;;5055399;28;20028;-74
2023/05/08 02:01:28;;;;;;;0.22;0.22;;;14.30;99.90;;;;;;5073023;28;20469;-73
2023/05/08 02:03:56;;;;;;;0.05;0.05;;;14.10;99.90;;;;;;5055083;28;20067;-75
2023/05/08 02:06:23;;;;;;;0.10;0.10;;;14.00;99.90;;;;;;5055462;28;20008;-71
2023/05/08 02:08:51;;;;;;;0.10;0.10;;;14.00;99.90;;;;;;5088842;28;20036;-76
2023/05/08 02:11:18;;;;;;;0.10;0.10;;;14.10;99.90;;;;;;5073213;28;20028;-74
2023/05/08 02:13:47;;;;;;;0.90;0.90;;;14.20;99.90;;;;;;5088630;28;20028;-74
2023/05/08 02:16:13;;;;;;;0.10;0.10;;;14.10;99.90;;;;;;5088216;28;20506;-74
2023/05/08 02:18:45;;;;;;;0.75;0.45;;;14.00;99.90;;;;;;5089052;28;20040;-72
2023/05/08 02:21:13;;;;;;;0.30;0.30;;;13.90;99.90;;;;;;5055247;28;20048;-71
2023/05/08 02:23:40;;;;;;;0.03;0.03;;;13.80;99.90;;;;;;5072924;28;20381;-71
2023/05/08 02:26:07;;;;;;;1.00;1.00;;;13.80;99.90;;;;;;5073047;28;20050;-71
2023/05/08 02:28:35;;;;;;;0.20;0.20;;;13.80;99.90;;;;;;5072938;28;20028;-71
2023/05/08 02:31:03;;;;;;;0.00;0.00;;;13.80;99.90;;;;;;5072695;28;20055;-71
2023/05/08 02:33:29;;;;;;;1.35;0.90;;;13.70;99.90;;;;;;5087755;28;20032;-72
2023/05/08 02:35:57;;;;;;;0.88;0.88;;;13.70;99.90;;;;;;5072879;28;20028;-74
2023/05/08 02:38:25;;;;;;;1.27;1.27;;;13.50;99.90;;;;;;5072794;28;20074;-72
2023/05/08 02:40:56;;;;;;;0.88;0.88;;;13.50;99.90;;;;;;5103986;28;20032;-70
2023/05/08 02:43:22;;;;;;;0.10;0.10;;;13.50;99.90;;;;;;5071558;28;20507;-71
2023/05/08 02:45:58;;;;;;;0.85;0.65;;;13.60;99.90;;;;;;5054816;28;20028;-73
2023/05/08 02:48:32;;;;;;;0.10;0.10;;;13.70;99.90;;;;;;5071474;28;20043;-75
2023/05/08 02:51:09;;;;;;;4.65;2.67;;;13.80;99.90;;;;;;5071201;28;20142;-75
2023/05/08 02:53:45;;;;;;;0.35;0.35;;;13.80;99.90;;;;;;5071299;28;20103;-74
2023/05/08 02:56:25;;;;;;;2.17;1.95;;;13.90;99.90;;;;;;5071171;28;20024;-75
2023/05/08 02:59:15;;;;;;;2.97;1.40;;;13.70;99.90;;;;;;5072380;28;20087;-74
2023/05/08 03:02:13;;;;;;;5.03;1.00;;;13.50;99.90;;;;;;5071254;28;20032;-73
2023/05/08 03:04:48;;;;;;;0.20;0.20;;;13.70;99.90;;;;;;5063015;28;20048;-75
2023/05/08 03:07:15;;;;;;;0.08;0.08;;;13.60;99.90;;;;;;5071219;28;20036;-75
2023/05/08 03:09:46;;;;;;;0.52;0.47;;;13.70;99.90;;;;;;5072596;28;20025;-75
2023/05/08 03:12:15;;;;;;;1.92;0.90;;;13.90;99.90;;;;;;5071688;28;20507;-71
2023/05/08 03:14:48;;;;;;;0.85;0.85;;;13.70;99.90;;;;;;5070617;28;20040;-71
2023/05/08 03:17:16;;;;;;;0.82;0.68;;;13.70;99.90;;;;;;5071110;28;20111;-71
2023/05/08 03:19:45;;;;;;;1.17;1.10;;;13.70;99.90;;;;;;5072199;28;20033;-71
2023/05/08 03:22:13;;;;;;;0.68;0.68;;;13.70;99.90;;;;;;5071036;28;20036;-71
2023/05/08 03:24:42;;;;;;;6.65;2.58;;;13.70;99.90;;;;;;5072094;28;20449;-72
2023/05/08 03:27:09;;;;;;;3.58;1.73;;;13.60;99.90;;;;;;5054133;28;20071;-71
2023/05/08 03:29:38;;;;;;;1.85;1.10;;;13.40;99.90;;;;;;5070829;28;20017;-71
2023/05/08 03:32:05;;;;;;;0.65;0.65;;;13.30;99.90;;;;;;5070796;28;20049;-72
2023/05/08 03:34:32;;;;;;;0.00;0.00;;;13.40;99.90;;;;;;5071043;28;20020;-71
2023/05/08 03:36:58;;;;;;;5.88;4.55;;;13.30;99.90;;;;;;5072098;28;20465;-72
2023/05/08 03:39:25;;;;;;;2.70;1.33;;;13.40;99.90;;;;;;5070538;28;20036;-71
2023/05/08 03:41:52;;;;;;;1.08;1.08;;;13.60;99.90;;;;;;5072020;28;20033;-72
2023/05/08 03:44:18;;;;;;;2.13;1.95;;;13.70;99.90;;;;;;5073712;28;20020;-72
2023/05/08 03:46:46;;;;;;;0.20;0.20;;;13.60;99.90;;;;;;5074529;28;20503;-72
2023/05/08 03:49:14;;;;;;;0.10;0.10;;;13.80;99.90;;;;;;5075795;28;20530;-71
2023/05/08 03:51:41;;;;;;;0.10;0.10;;;13.80;99.90;;;;;;5074483;28;20485;-72
2023/05/08 03:54:07;;;;;;;3.83;1.85;;;14.00;99.90;;;;;;5075724;28;20028;-71
2023/05/08 03:56:33;;;;;;;3.03;0.75;;;13.90;99.90;;;;;;5074175;28;20024;-72
2023/05/08 03:59:08;;;;;;;1.02;1.02;;;14.10;99.90;;;;;;5057983;28;20029;-71
2023/05/08 04:01:39;;;;;;;0.90;0.90;;;14.30;99.90;;;;;;5074235;28;20040;-72
2023/05/08 04:04:29;;;;;;;0.20;0.20;;;14.30;99.90;;;;;;5074153;28;20036;-71
2023/05/08 04:07:04;;;;;;;2.40;2.30;;;14.30;99.90;;;;;;5074234;28;20146;-72
2023/05/08 04:10:04;;;;;;;4.00;3.10;;;13.80;99.90;;;;;;5074274;28;20373;-72
2023/05/08 04:12:58;;;;;;;0.80;0.68;;;13.60;99.90;;;;;;5073582;28;20052;-71
2023/05/08 04:15:28;;;;;;;1.60;1.50;;;13.70;99.90;;;;;;5073710;28;20032;-73
2023/05/08 04:17:59;;;;;;;0.10;0.10;;;13.60;99.90;;;;;;5073670;28;20021;-72
2023/05/08 04:20:29;;;;;;;0.10;0.10;;;13.80;99.90;;;;;;5073620;28;20037;-72
2023/05/08 04:22:56;;;;;;;2.70;2.50;;;13.90;99.90;;;;;;5073255;28;20040;-71
2023/05/08 04:25:23;;;;;;;2.08;1.60;;;13.60;99.90;;;;;;5057146;28;20024;-72
2023/05/08 04:27:50;;;;;;;0.30;0.30;;;13.60;99.90;;;;;;5073649;28;20384;-72
2023/05/08 04:30:16;;;;;;;0.30;0.30;;;13.80;99.90;;;;;;5073817;28;20119;-72
2023/05/08 04:32:44;;;;;;;0.00;0.00;;;13.60;99.90;;;;;;5073806;28;20535;-72
2023/05/08 04:35:12;;;;;;;1.35;1.15;;;13.60;99.90;;;;;;5073537;28;20044;-76
2023/05/08 04:37:39;;;;;;;7.93;3.53;;;13.40;99.90;;;;;;5073612;28;20044;-73
2023/05/08 04:40:06;;;;;;;1.95;1.85;;;13.10;99.90;;;;;;5074455;28;20035;-71
2023/05/08 04:42:35;;;;;;;0.10;0.10;;;13.10;99.90;;;;;;5056927;28;20129;-72
2023/05/08 04:45:01;;;;;;;2.45;2.33;;;13.00;99.90;;;;;;5057035;28;20111;-73
2023/05/08 04:47:27;;;;;;;0.10;0.10;;;13.10;99.90;;;;;;5056625;28;20112;-72
2023/05/08 04:49:53;;;;;;;2.17;1.27;;;13.10;99.90;;;;;;5056878;28;20021;-73
2023/05/08 04:52:19;;;;;;;5.18;1.83;;;13.20;99.90;;;;;;5074349;28;20021;-71
2023/05/08 04:54:45;;;;;;;1.73;1.08;;;13.00;99.90;;;;;;5056351;28;20045;-72
2023/05/08 04:57:10;;;;;;;6.30;1.30;;;12.90;99.90;;;;;;5055891;28;20063;-75
2023/05/08 04:59:37;;;;;;;1.75;1.65;;;12.90;99.90;;;;;;5056785;28;20043;-75
2023/05/08 05:02:05;;;;;;;12.95;2.33;;;13.00;99.90;;;;;;5039691;28;20032;-76
2023/05/08 05:04:31;;;;;;;3.72;1.75;;;13.00;99.90;;;;;;5029468;28;20074;-73
2023/05/08 05:06:57;;;;;;;8.38;3.28;;;13.00;99.90;;;;;;5039897;28;20431;-76
2023/05/08 05:09:24;;;;;;;2.65;1.95;;;13.20;99.90;;;;;;5056033;28;20072;-76
2023/05/08 05:11:50;;;;;;;1.55;1.48;;;13.20;99.90;;;;;;5074381;28;20488;-75
2023/05/08 05:14:16;;;;;;;4.30;3.75;;;13.20;99.90;;;;;;5055991;28;20123;-74
2023/05/08 05:16:41;;;;;;;3.33;2.47;;;13.10;99.90;;;;;;5056452;28;20116;-75
2023/05/08 05:19:09;;;;;;;5.30;2.60;;;13.10;99.90;;;;;;5056154;28;20021;-76
2023/05/08 05:21:36;;;;;;;8.75;2.17;;;13.00;99.90;;;;;;5055936;28;20040;-75
2023/05/08 05:24:03;;;;;;;0.70;0.70;;;13.00;99.90;;;;;;5055681;28;20520;-74
2023/05/08 05:26:29;;;;;;;3.72;3.42;;;13.10;99.90;;;;;;5055883;28;20029;-74
2023/05/08 05:28:55;;;;;;;6.05;1.35;;;13.10;99.90;;;;;;5074126;28;20427;-73
2023/05/08 05:31:21;;;;;;;2.05;1.92;;;13.10;99.90;;;;;;5055932;28;20028;-74
2023/05/08 05:33:47;;;;;;;16.27;8.40;;;13.10;99.90;;;;;;5055552;28;20020;-74
2023/05/08 05:36:12;;;;;;;4.47;3.38;;;13.20;99.90;;;;;;5055806;28;20123;-69
2023/05/08 05:38:38;;;;;;;0.25;0.25;;;13.50;99.90;;;;;;5073143;28;20487;-74
2023/05/08 05:41:04;;;;;;;1.65;1.55;;;13.40;99.90;;;;;;5073504;28;20036;-74
2023/05/08 05:43:31;;;;;;;2.22;1.90;;;13.30;99.90;;;;;;5055354;28;20036;-75
2023/05/08 05:46:03;;;;;;;0.20;0.20;;;13.40;99.90;;;;;;5055878;28;20039;-74
2023/05/08 05:48:29;;;;;;;4.90;1.67;;;13.60;99.90;;;;;;5055399;28;20056;-76
2023/05/08 05:50:55;;;;;;;0.70;0.70;;;13.60;99.90;;;;;;5055803;28;20070;-74
2023/05/08 05:53:21;;;;;;;0.35;0.35;;;13.40;99.90;;;;;;5038499;28;20040;-72
2023/05/08 05:55:47;;;;;;;2.58;2.35;;;13.40;99.90;;;;;;5055736;28;20021;-76
2023/05/08 05:58:14;;;;;;;0.13;0.13;;;13.40;99.90;;;;;;5055257;28;20036;-76
2023/05/08 06:00:40;;;;;;;0.68;0.68;;;13.40;99.90;;;;;;5038848;28;20020;-74
2023/05/08 06:03:07;;;;;;;0.75;0.75;;;13.60;99.90;;;;;;5055308;28;20028;-75
2023/05/08 06:05:33;;;;;;;0.13;0.13;;;13.50;99.90;;;;;;5055322;28;20024;-70
2023/05/08 06:07:58;;;;;;;8.02;1.38;;;13.60;99.90;;;;;;5072258;28;20150;-71
2023/05/08 06:10:24;;;;;;;1.98;1.88;;;13.60;99.90;;;;;;5073043;28;20469;-70
2023/05/08 06:12:50;;;;;;;2.95;1.23;;;13.60;99.90;;;;;;5073157;28;20108;-70
2023/05/08 06:15:17;;;;;;;0.10;0.10;;;13.70;99.90;;;;;;5055055;28;20032;-70
2023/05/08 06:17:45;;;;;;;0.20;0.20;;;13.80;99.90;;;;;;5055248;28;20032;-71
2023/05/08 06:20:12;;;;;;;2.00;1.13;;;13.90;99.90;;;;;;5055035;28;20023;-71
2023/05/08 06:22:39;;;;;;;0.20;0.20;;;13.80;99.90;;;;;;5054404;28;20036;-71
2023/05/08 06:25:08;;;;;;;0.35;0.35;;;13.90;99.90;;;;;;5054793;28;20023;-71
2023/05/08 06:27:34;;;;;;;3.58;3.30;;;14.00;99.90;;;;;;5072936;28;20116;-70
2023/05/08 06:30:00;;;;;;;0.20;0.20;;;14.20;99.90;;;;;;5072696;28;20461;-70
2023/05/08 06:32:26;;;;;;;3.22;3.03;;;13.80;99.90;;;;;;5072850;28;20071;-71
2023/05/08 06:34:52;;;;;;;0.38;0.38;;;13.90;99.90;;;;;;5072555;28;20431;-71
2023/05/08 06:37:17;;;;;;;4.38;1.88;;;14.00;99.90;;;;;;5072550;28;20020;-72
2023/05/08 06:39:43;;;;;;;0.52;0.52;;;13.80;99.90;;;;;;5072759;28;20105;-71
2023/05/08 06:42:09;;;;;;;3.20;1.58;;;14.10;99.90;;;;;;5072549;28;20037;-71
2023/05/08 06:44:39;;;;;;;1.00;1.00;;;13.80;99.90;;;;;;5054749;28;20017;-71
2023/05/08 06:47:05;;;;;;;2.33;1.95;;;13.70;99.90;;;;;;5054881;28;20032;-70
2023/05/08 06:49:31;;;;;;;0.68;0.68;;;14.00;99.90;;;;;;5072502;28;20031;-70
2023/05/08 06:51:57;;;;;;;2.67;2.08;;;14.30;99.90;;;;;;5072282;28;20029;-72
2023/05/08 06:54:23;;;;;;;7.13;6.38;;;14.40;99.90;;;;;;5072349;28;20027;-70
2023/05/08 06:56:48;;;;;;;1.00;1.00;;;14.30;99.90;;;;;;5072721;28;20384;-73
2023/05/08 06:59:14;;;;;;;7.85;5.78;;;14.20;99.90;;;;;;5054540;28;20036;-76
2023/05/08 07:01:40;;;;;;;0.75;0.75;;;14.10;99.90;;;;;;5072411;28;20036;-74
2023/05/08 07:04:06;;;;;;;0.47;0.47;;;14.00;99.90;;;;;;5072535;28;20028;-75
2023/05/08 07:06:32;;;;;;;4.75;2.17;;;14.10;99.90;;;;;;5072128;28;20370;-73
2023/05/08 07:08:58;;;;;;;7.60;5.05;;;14.40;99.90;;;;;;5072437;28;20370;-74
2023/05/08 07:11:24;;;;;;;14.23;5.72;;;13.90;99.90;;;;;;5072410;28;20044;-75
2023/05/08 07:13:49;;;;;;;14.95;6.43;;;14.00;99.90;;;;;;5072473;28;20021;-74
2023/05/08 07:16:15;;;;;;;1.77;1.67;;;14.00;99.90;;;;;;5072257;28;20476;-75
2023/05/08 07:18:42;;;;;;;8.40;4.15;;;14.50;99.90;;;;;;5073590;28;20500;-76
2023/05/08 07:21:08;;;;;;;3.58;2.85;;;14.30;99.90;;;;;;5076315;28;20025;-74
2023/05/08 07:23:34;;;;;;;17.08;9.07;;;14.20;99.90;;;;;;5076390;28;20039;-75
2023/05/08 07:25:59;;;;;;;12.55;8.68;;;14.10;99.90;;;;;;5076089;28;20063;-75
2023/05/08 07:28:25;;;;;;;17.25;4.45;;;14.20;99.90;;;;;;5076168;28;20033;-74
2023/05/08 07:30:51;;;;;;;38.25;9.20;;;14.10;99.90;;;;;;5076054;28;20021;-76
2023/05/08 07:33:17;;;;;;;2.92;2.05;;;14.20;99.90;;;;;;5075988;28;20040;-75
2023/05/08 07:35:43;;;;;;;8.98;3.80;;;14.40;99.90;;;;;;5075876;28;20060;-75
2023/05/08 07:38:09;;;;;;;0.60;0.60;;;14.60;99.90;;;;;;5058519;28;20421;-74
2023/05/08 07:40:35;;;;;;;15.48;6.45;;;14.80;99.90;;;;;;5075609;28;20025;-74
2023/05/08 07:43:01;;;;;;;5.13;3.17;;;14.80;99.90;;;;;;5058067;28;20105;-76
2023/05/08 07:45:27;;;;;;;1.48;1.30;;;15.20;99.90;;;;;;5075704;28;20071;-76
2023/05/08 07:47:56;;;;;;;1.15;1.15;;;15.10;99.90;;;;;;5076123;28;20062;-76
2023/05/08 07:50:22;;;;;;;27.50;11.50;;;15.10;99.90;;;;;;5075541;28;20028;-75
2023/05/08 07:52:48;;;;;;;19.25;4.32;;;15.10;99.90;;;;;;5075583;28;20036;-74
2023/05/08 07:55:15;;;;;;;7.60;5.45;;;15.20;99.90;;;;;;5075827;28;20400;-76
2023/05/08 07:57:42;;;;;;;11.45;3.17;;;15.30;99.90;;;;;;5075561;28;20040;-76
2023/05/08 08:00:11;;;;;;;22.02;8.50;;;15.20;99.90;;;;;;5075679;28;20108;-75
2023/05/08 08:02:40;;;;;;;27.45;8.82;;;15.40;99.90;;;;;;5075158;28;20040;-74
2023/05/08 08:05:07;;;;;;;44.25;12.95;;;15.40;99.90;;;;;;5075390;28;20068;-76
2023/05/08 08:07:32;;;;;;;13.20;7.30;;;15.30;99.90;;;;;;5075166;28;20052;-74
2023/05/08 08:09:59;;;;;;;20.83;8.25;;;15.10;99.90;;;;;;5075525;28;20052;-76
2023/05/08 08:12:25;;;;;;;16.25;2.63;;;15.20;99.90;;;;;;5075357;28;20023;-74
2023/05/08 08:14:51;;;;;;;0.10;0.10;;;15.40;99.90;;;;;;5075354;28;20021;-74
2023/05/08 08:17:17;;;;;;;10.68;4.25;;;15.40;99.90;;;;;;5075270;28;20021;-75
2023/05/08 08:19:43;;;;;;;11.18;6.60;;;15.50;99.90;;;;;;5074917;28;20461;-76
2023/05/08 08:22:09;;;;;;;4.13;2.17;;;15.60;99.90;;;;;;5074885;28;20050;-75
2023/05/08 08:24:34;;;;;;;10.18;6.22;;;15.50;99.90;;;;;;5075360;28;20384;-75
2023/05/08 08:27:00;;;;;;;15.45;5.25;;;15.80;99.90;;;;;;5075282;28;20020;-73
2023/05/08 08:29:26;;;;;;;9.45;5.53;;;15.60;99.90;;;;;;5075033;28;20112;-72
2023/05/08 08:31:52;;;;;;;27.38;7.55;;;15.90;99.90;;;;;;5073973;28;20017;-73
2023/05/08 08:34:18;;;;;;;3.60;2.05;;;15.60;99.90;;;;;;5075003;28;20028;-73
2023/05/08 08:36:43;;;;;;;9.55;3.10;;;15.60;99.90;;;;;;5074845;28;20059;-72
2023/05/08 08:39:09;;;;;;;19.52;7.00;;;15.50;99.90;;;;;;5074867;28;20380;-74
2023/05/08 08:41:35;;;;;;;21.67;9.48;;;15.60;99.90;;;;;;5074688;28;20496;-75
2023/05/08 08:44:00;;;;;;;4.80;1.55;;;15.80;99.90;;;;;;5074720;28;20029;-71
2023/05/08 08:46:27;;;;;;;5.18;1.52;;;15.70;99.90;;;;;;5056786;28;20028;-74
2023/05/08 08:48:55;;;;;;;23.77;2.42;;;16.00;99.90;;;;;;5074717;28;20029;-72
2023/05/08 08:51:27;;;;;;;0.73;0.73;;;16.30;99.90;;;;;;5075214;28;20086;-74
2023/05/08 08:54:05;;;;;;;12.25;5.90;;;16.40;99.90;;;;;;5056430;28;20047;-75
2023/05/08 08:56:33;;;;;;;10.65;5.00;;;16.30;99.90;;;;;;5074775;28;20040;-73
2023/05/08 08:59:01;;;;;;;6.03;3.70;;;16.30;99.90;;;;;;5074470;28;20477;-75
2023/05/08 09:01:29;;;;;;;1.02;1.02;;;16.20;99.90;;;;;;5056361;28;20389;-75
2023/05/08 09:03:58;;;;;;;10.82;4.50;;;15.80;99.90;;;;;;5074353;28;20021;-77
2023/05/08 09:06:26;;;;;;;36.58;10.60;;;15.80;99.90;;;;;;5074798;28;20033;-74
2023/05/08 09:08:55;;;;;;;25.67;10.95;;;15.50;99.90;;;;;;5074135;28;20024;-74
2023/05/08 09:11:21;;;;;;;17.13;6.15;;;15.80;99.90;;;;;;5074670;28;20031;-71
2023/05/08 09:13:47;;;;;;;15.43;5.35;;;15.60;99.90;;;;;;5074120;28;20393;-70
2023/05/08 09:16:13;;;;;;;2.05;1.80;;;15.60;99.90;;;;;;5073848;28;20044;-70
2023/05/08 09:18:38;;;;;;;20.88;7.60;;;15.80;99.90;;;;;;5074313;28;20086;-70
2023/05/08 09:21:07;;;;;;;26.00;6.80;;;15.90;99.90;;;;;;5056206;28;20039;-70
2023/05/08 09:23:36;;;;;;;3.42;2.28;;;15.90;99.90;;;;;;5073588;28;20074;-70
2023/05/08 09:26:02;;;;;;;0.38;0.38;;;16.20;99.90;;;;;;5074269;28;20146;-70
2023/05/08 09:28:27;;;;;;;15.52;2.25;;;16.50;99.90;;;;;;5073869;28;20055;-71
2023/05/08 09:30:55;;;;;;;3.08;2.80;;;16.60;99.90;;;;;;5073607;28;20029;-70
2023/05/08 09:33:23;;;;;;;5.35;3.17;;;16.40;99.90;;;;;;5073656;28;20427;-74
2023/05/08 09:35:49;;;;;;;12.13;6.28;;;16.20;99.90;;;;;;5074138;28;20028;-70
2023/05/08 09:38:40;;;;;;;9.95;4.40;;;16.10;99.90;;;;;;5073731;28;20029;-71
2023/05/08 09:41:14;;;;;;;16.20;4.82;;;16.30;99.90;;;;;;5042339;28;20032;-73
2023/05/08 09:43:44;;;;;;;7.47;0.80;;;16.30;99.90;;;;;;5070277;28;20036;-73
2023/05/08 09:46:22;;;;;;;6.10;2.35;;;16.20;99.90;;;;;;5073456;28;20031;-74
2023/05/08 09:48:53;;;;;;;8.93;3.45;;;16.30;99.90;;;;;;5073235;28;20449;-73
2023/05/08 09:51:20;;;;;;;11.65;5.32;;;16.10;99.90;;;;;;5055655;28;20119;-74
2023/05/08 09:53:46;;;;;;;5.55;2.80;;;16.00;99.90;;;;;;5073158;28;20025;-74
2023/05/08 09:56:12;;;;;;;5.22;2.47;;;16.00;99.90;;;;;;5055796;28;20016;-74
2023/05/08 09:58:43;;;;;;;4.35;4.05;;;16.30;99.90;;;;;;5073384;28;20032;-73
2023/05/08 10:01:34;;;;;;;6.20;3.95;;;15.90;99.90;;;;;;5073287;28;20484;-75
2023/05/08 10:04:01;;;;;;;27.08;9.95;;;15.90;99.90;;;;;;5073087;28;20044;-74
2023/05/08 10:06:28;;;;;;;15.00;6.35;;;15.80;99.90;;;;;;5073174;28;20516;-74
2023/05/08 10:09:10;;;;;;;1.95;1.85;;;15.90;99.90;;;;;;5073161;28;20419;-74
2023/05/08 10:11:41;;;;;;;16.40;6.30;;;16.10;99.90;;;;;;5055457;28;20033;-74
2023/05/08 10:14:07;;;;;;;20.63;7.03;;;16.40;99.90;;;;;;5072570;28;20470;-73
2023/05/08 10:16:44;;;;;;;4.28;1.08;;;16.40;99.90;;;;;;5072821;28;20504;-74
2023/05/08 10:19:32;;;;;;;19.02;9.00;;;16.50;99.90;;;;;;5072840;28;20115;-73
2023/05/08 10:22:00;;;;;;;9.40;2.63;;;16.60;99.90;;;;;;5055143;28;20099;-73
2023/05/08 10:24:32;;;;;;;11.40;4.63;;;16.50;99.90;;;;;;5072934;28;20111;-73
2023/05/08 10:27:03;;;;;;;17.17;10.30;;;16.40;99.90;;;;;;5054650;28;20036;-72
2023/05/08 10:29:42;;;;;;;5.63;3.50;;;16.40;99.90;;;;;;5072565;28;20064;-72
2023/05/08 10:32:13;;;;;;;13.15;7.00;;;16.60;99.90;;;;;;5072866;28;20469;-74
2023/05/08 10:34:40;;;;;;;1.85;1.45;;;16.80;99.90;;;;;;5072735;28;20024;-76
2023/05/08 10:37:09;;;;;;;0.30;0.30;;;17.10;99.90;;;;;;5054697;28;20028;-73
2023/05/08 10:39:35;;;;;;;9.32;5.32;;;17.20;99.90;;;;;;5072480;28;20362;-75
2023/05/08 10:42:02;;;;;;;7.28;6.65;;;17.40;99.90;;;;;;5072461;28;20024;-71
2023/05/08 10:44:31;;;;;;;4.68;3.55;;;17.40;99.90;;;;;;5072454;28;20081;-75
2023/05/08 10:47:07;;;;;;;4.57;1.27;;;17.40;99.90;;;;;;5072299;28;20047;-73
2023/05/08 10:49:56;;;;;;;16.63;4.47;;;17.30;99.90;;;;;;5072866;28;20031;-74
2023/05/08 10:52:46;;;;;;;3.83;2.55;;;17.30;99.90;;;;;;5072805;28;20461;-73
2023/05/08 10:55:16;;;;;;;15.77;6.70;;;17.30;99.90;;;;;;5048397;28;20029;-74
2023/05/08 10:58:05;;;;;;;15.90;6.35;;;17.30;99.90;;;;;;5072371;28;20052;-74
2023/05/08 11:00:58;;;;;;;8.02;5.18;;;17.60;99.90;;;;;;5072154;28;20082;-73
2023/05/08 11:03:25;;;;;;;11.98;5.70;;;17.60;99.90;;;;;;5072579;28;20477;-73
2023/05/08 11:05:53;;;;;;;0.32;0.32;;;17.80;99.90;;;;;;5072244;28;20521;-73
2023/05/08 11:08:23;;;;;;;11.27;5.68;;;17.70;99.90;;;;;;5072504;28;20016;-73
2023/05/08 11:11:26;;;;;;;8.32;3.55;;;18.00;99.90;;;;;;5071898;28;20029;-73
2023/05/08 11:14:13;;;;;;;20.23;6.38;;;17.90;99.90;;;;;;5068915;28;20044;-74
2023/05/08 11:16:53;;;;;;;8.82;1.40;;;17.00;99.90;;;;;;5072226;28;20488;-73
2023/05/08 11:19:23;;;;;;;4.47;2.55;;;16.90;99.90;;;;;;5054366;28;20043;-74
2023/05/08 11:22:12;;;;;;;0.10;0.10;;;17.00;99.90;;;;;;5071884;28;20047;-73
2023/05/08 11:24:59;;;;;;;6.43;4.57;;;17.10;99.90;;;;;;5072363;28;20166;-73
2023/05/08 11:27:45;;;;;;;1.95;1.85;;;17.10;99.90;;;;;;5071542;28;20068;-75
2023/05/08 11:30:25;;;;;;;8.27;1.98;;;17.10;99.90;;;;;;5054416;28;20101;-74
2023/05/08 11:32:58;;;;;;;8.30;5.10;;;17.30;99.90;;;;;;5072232;28;20525;-72
2023/05/08 11:35:42;;;;;;;4.38;2.45;;;17.50;99.90;;;;;;5054116;28;20024;-74
2023/05/08 11:38:16;;;;;;;12.32;10.43;;;17.80;99.90;;;;;;5072302;28;20033;-74
2023/05/08 11:40:46;;;;;;;12.32;6.82;;;17.60;99.90;;;;;;5071566;28;20115;-73
2023/05/08 11:43:26;;;;;;;8.98;3.75;;;17.60;99.90;;;;;;5072031;28;20146;-73
2023/05/08 11:45:53;;;;;;;3.88;2.63;;;17.40;99.90;;;;;;5072047;28;20036;-73
2023/05/08 11:48:19;;;;;;;2.08;1.55;;;17.30;99.90;;;;;;5072125;28;20094;-74
2023/05/08 11:50:45;;;;;;;24.85;8.73;;;17.30;99.90;;;;;;5072076;28;20012;-73
2023/05/08 11:53:12;;;;;;;3.50;2.63;;;17.10;99.90;;;;;;5071960;28;20029;-74
2023/05/08 11:55:38;;;;;;;13.77;6.03;;;17.30;99.90;;;;;;5071644;28;20077;-74
2023/05/08 11:58:11;;;;;;;11.65;6.32;;;17.40;99.90;;;;;;5072152;28;20020;-74
2023/05/08 12:00:43;;;;;;;5.57;2.50;;;17.40;99.90;;;;;;5071690;28;20499;-73
2023/05/08 12:03:13;;;;;;;14.63;5.57;;;17.60;99.90;;;;;;5071799;28;20051;-74
2023/05/08 12:05:39;;;;;;;3.35;1.25;;;17.50;99.90;;;;;;5054842;28;20488;-73
2023/05/08 12:08:06;;;;;;;8.07;3.55;;;17.50;99.90;;;;;;5075627;28;20020;-75
2023/05/08 12:10:32;;;;;;;0.82;0.82;;;17.60;99.90;;;;;;5075416;28;20069;-75
2023/05/08 12:12:58;;;;;;;3.42;1.73;;;17.70;99.90;;;;;;5075439;28;20095;-76
2023/05/08 12:15:23;;;;;;;8.98;5.40;;;17.90;99.90;;;;;;5075513;28;20481;-75
2023/05/08 12:18:01;;;;;;;2.67;2.08;;;18.00;99.90;;;;;;5057688;28;20512;-71
2023/05/08 12:20:27;;;;;;;8.65;3.40;;;18.10;99.90;;;;;;5057801;28;20086;-70
2023/05/08 12:22:52;;;;;;;6.70;4.28;;;18.20;99.90;;;;;;5075607;28;20033;-70
2023/05/08 12:25:19;;;;;;;11.63;5.93;;;18.30;99.90;;;;;;5075065;28;20023;-72
2023/05/08 12:27:45;;;;;;;8.00;5.38;;;18.40;99.90;;;;;;5075594;28;20029;-71
2023/05/08 12:30:12;;;;;;;7.22;3.67;;;18.60;99.90;;;;;;5075439;28;20020;-72
2023/05/08 12:32:42;;;;;;;13.10;6.63;;;18.90;99.90;;;;;;5075629;28;20044;-74
2023/05/08 12:35:10;;;;;;;2.92;1.70;;;19.00;99.90;;;;;;5074939;28;20044;-71
2023/05/08 12:37:36;;;;;;;10.13;3.92;;;18.90;99.90;;;;;;5090579;28;20066;-70
2023/05/08 12:40:03;;;;;;;1.42;1.35;;;18.40;99.90;;;;;;5074029;28;20548;-70
2023/05/08 12:42:45;;;;;;;3.20;2.95;;;18.40;99.90;;;;;;5050278;28;20045;-73
2023/05/08 12:45:24;;;;;;;;;;;18.90;99.90;;;;;;5059566;28;20025;-71
2023/05/08 12:47:52;;;;;;;10.25;4.13;;;18.90;99.90;;;;;;5074743;28;19995;-74
2023/05/08 12:50:20;;;;;;;6.50;3.50;;;18.70;99.90;;;;;;5074948;28;20027;-75
2023/05/08 12:52:46;;;;;;;1.25;1.08;;;18.70;99.90;;;;;;5074594;28;20484;-73
2023/05/08 12:55:25;;;;;;;1.48;1.38;;;18.90;99.90;;;;;;5074652;28;20435;-74
2023/05/08 12:58:04;;;;;;;3.38;1.60;;;19.40;99.90;;;;;;5074770;28;20028;-74